Milan Center, Indiana
Current Conditions -  °F | °C
As of 4:54 PM on Thursday 18 Dec 2014 (Local Time) from KFWA Reporting Station
Overcast Overcast  
Wind Chill: 19°   Ceiling: 2800
Heat Index: 27°   Visibility: 8mi
Dew Point: 21°   Wind: 8mph
Humidity: 78%   Direction: 280°W
Pressure: 30.22"   Gusts: NA
Location:  41.0925°N, 84.9712°W
Report Text: KFWA 182154Z 28007KT 8SM SCT017 OVC028 M03/M06 A3022 RMK AO2 SLP243 T10281061
Loading
Personal Weather Stations






























Interactive Weather Map New forecast layout! Learn more

10-Day Weather Forecast

Advertisements
Track Severe Weather on mobile